• Join FlightAware (Why Join?)
  • Login
  • US Flag 
08:58PM EDT


 

Airport Tracker/Info


-or-


 

Live Flight TrackerFlight Track Log ✈ JUS327 ✈ 07-May-2013 ✈ KELP - KSDF

Flight Track Log - Related Links

Times and Time Zones

All times are in EDT time to prevent confusion due to time zone crossing. See the JUS327 flight status page for this flight to view local times or setup timezone preferences in your user account.

Time Position Orientation Groundspeed Altitude Reporting Facility
EDT Latitude Longitude Course Direction KTS MPH feet Rate Location/Type
05:05PM 31.7944 -106.4072 159° South 210 242 5,000  Level Albuquerque Center
05:06PM 31.7581 -106.3911 159° South 222 255 6,300 1,800 Climbing Albuquerque Center
05:07PM 31.7250 -106.3281 122° Southeast 227 261 8,400 1,740 Climbing Albuquerque Center
05:08PM 31.7414 -106.2431 77° East 297 342 9,900 1,620 Climbing Albuquerque Center
05:09PM 31.7906 -106.1286 63° Northeast 333 383 11,800 1,920 Climbing Albuquerque Center
05:10PM 31.8414 -106.0244 60° Northeast 364 419 13,900 1,980 Climbing Albuquerque Center
05:11PM 31.8956 -105.9181 59° Northeast 376 433 16,000 1,920 Climbing Albuquerque Center
05:12PM 31.9486 -105.8075 60° Northeast 385 443 17,900 1,740 Climbing Albuquerque Center
05:13PM 32.0078 -105.6950 58° Northeast 400 460 19,600 1,560 Climbing Albuquerque Center
05:14PM 32.1069 -105.6336 28° Northeast 405 466 21,100 1,440 Climbing Albuquerque Center
05:15PM 32.2022 -105.5553 35° Northeast 416 479 22,600 1,620 Climbing Albuquerque Center
05:16PM 32.3214 -105.4553 35° Northeast 432 497 24,500 1,620 Climbing Albuquerque Center
05:17PM 32.4250 -105.3833 30° Northeast 432 497 26,000 1,260 Climbing Albuquerque Center
05:18PM 32.5239 -105.2936 37° Northeast 442 509 27,200 1,020 Climbing Albuquerque Center
05:19PM 32.6300 -105.2094 34° Northeast 452 520 28,200 1,140 Climbing Albuquerque Center
05:20PM 32.7458 -105.1153 34° Northeast 464 534 29,600 1,200 Climbing Albuquerque Center
05:21PM 32.8561 -105.0133 38° Northeast 466 536 30,700 1,200 Climbing Albuquerque Center
05:22PM 32.9656 -104.9353 31° Northeast 458 527 32,200 1,140 Climbing Albuquerque Center
05:23PM 33.0686 -104.8450 36° Northeast 461 531 33,100 900 Climbing Albuquerque Center
05:24PM 33.1797 -104.7483 36° Northeast 459 528 34,100 840 Climbing Albuquerque Center
05:25PM 33.2892 -104.6708 31° Northeast 457 526 34,900 420 Climbing Albuquerque Center
05:26PM 33.3892 -104.5717 40° Northeast 473 544 35,000  Climbing Albuquerque Center
05:27PM 33.4786 -104.4236 54° Northeast 488 562 35,000  Level Albuquerque Center
05:28PM 33.5514 -104.2892 57° Northeast 483 556 35,000  Level Albuquerque Center
05:29PM 33.6414 -104.1703 48° Northeast 480 552 35,000  Level Albuquerque Center
05:30PM 33.7372 -104.0400 48° Northeast 483 556 35,000  Level Albuquerque Center
05:31PM 33.8147 -103.9067 55° Northeast 485 558 35,000  Level Albuquerque Center
05:32PM 33.9025 -103.7847 49° Northeast 481 554 35,000  Level Albuquerque Center
05:33PM 33.9872 -103.6575 51° Northeast 483 556 35,000  Level Albuquerque Center
05:35PM 34.0664 -103.5256 54° Northeast 485 558 35,000  Level Albuquerque Center
05:36PM 34.1561 -103.4039 48° Northeast 485 558 35,000  Level Albuquerque Center
05:37PM 34.2506 -103.2542 53° Northeast 479 551 35,000  Level Albuquerque Center
05:38PM 34.3325 -103.1217 53° Northeast 479 551 35,000  Level Albuquerque Center
05:39PM 34.4192 -102.9989 49° Northeast 479 551 35,000  Level Albuquerque Center
05:40PM 34.4956 -102.8656 55° Northeast 478 550 35,000  Level Albuquerque Center
05:41PM 34.5817 -102.7411 50° Northeast 478 550 35,000  Level Albuquerque Center
05:42PM 34.6619 -102.6236 50° Northeast 477 549 35,000  Level Albuquerque Center
05:43PM 34.7322 -102.4844 58° Northeast 482 555 35,000  Level Albuquerque Center
05:44PM 34.7722 -102.2922 76° East 492 566 35,000  Level Albuquerque Center
05:45PM 34.7906 -102.1283 82° East 491 565 35,000  Level Albuquerque Center
05:46PM 34.8353 -101.9722 71° East 492 566 35,000  Level Albuquerque Center
05:47PM 34.8811 -101.8183 70° East 491 565 35,000  Level Albuquerque Center
05:48PM 34.9203 -101.6606 73° East 491 565 35,000  Level Albuquerque Center
05:49PM 34.9661 -101.4836 72° East 491 565 35,000  Level Albuquerque Center
05:50PM 35.0072 -101.3172 73° East 490 564 35,000  Level Albuquerque Center
05:51PM 35.0442 -101.1600 74° East 488 562 35,000  Level Albuquerque Center
05:52PM 35.0789 -101.0033 75° East 484 557 35,000  Level Albuquerque Center
05:53PM 35.1189 -100.8478 73° East 482 555 35,000  Level Albuquerque Center
05:54PM 35.1531 -100.6903 75° East 481 554 35,000  Level Albuquerque Center
05:55PM 35.2008 -100.5392 69° East 480 552 35,000  Level Albuquerque Center
05:56PM 35.2464 -100.3517 73° East 481 554 35,000  Level Albuquerque Center
05:57PM 35.2900 -100.1983 71° East 480 552 35,000  Level Albuquerque Center
05:58PM 35.3342 -100.0453 70° East 479 551 35,000  Level Albuquerque Center
05:59PM 35.3725 -99.8881 73° East 482 555 35,000  Level Albuquerque Center
06:00PM 35.4189 -99.7361 69° East 479 551 35,000  Level Albuquerque Center
06:01PM 35.4514 -99.6153 72° East 479 551 35,000  Level Fort Worth Center
06:02PM 35.4961 -99.4456 72° East 479 551 35,000  Level Fort Worth Center
06:03PM 35.5358 -99.2908 72° East 479 551 35,000  Level Fort Worth Center
06:04PM 35.5778 -99.1336 72° East 479 551 35,000  Level Fort Worth Center
06:05PM 35.6150 -98.9992 71° East 474 545 35,000  Level Fort Worth Center
06:06PM 35.6503 -98.8414 75° East 474 545 35,000  Level Fort Worth Center
06:07PM 35.6936 -98.6836 71° East 474 545 35,000  Level Fort Worth Center
06:09PM 35.7869 -98.3133 73° East 482 555 35,000  Level Kansas City Center
06:10PM 35.8286 -98.1536 72° East 485 558 35,000  Level Kansas City Center
06:11PM 35.8744 -97.9650 73° East 482 555 35,000  Level Kansas City Center
06:12PM 35.9169 -97.8067 72° East 482 555 35,000  Level Kansas City Center
06:13PM 35.9528 -97.6436 75° East 488 562 35,000  Level Kansas City Center
06:15PM 35.9964 -97.4867 71° East 483 556 35,000  Level Kansas City Center
06:16PM 36.0314 -97.3256 75° East 483 556 35,000  Level Kansas City Center
06:17PM 36.0711 -97.1678 73° East 481 554 35,000  Level Kansas City Center
06:18PM 36.1061 -97.0086 75° East 480 552 35,000  Level Kansas City Center
06:19PM 36.1483 -96.8525 71° East 480 552 35,000  Level Kansas City Center
06:20PM 36.1883 -96.6664 75° East 482 555 35,000  Level Kansas City Center
06:21PM 36.2314 -96.5106 71° East 481 554 35,000  Level Kansas City Center
06:22PM 36.2667 -96.3483 75° East 483 556 35,000  Level Kansas City Center
06:23PM 36.3044 -96.1900 73° East 481 554 35,000  Level Kansas City Center
06:24PM 36.3497 -95.9981 74° East 482 555 35,000  Level Kansas City Center
06:25PM 36.3872 -95.8389 74° East 481 554 35,000  Level Kansas City Center
06:26PM 36.4258 -95.6781 73° East 474 545 35,000  Level Kansas City Center
06:27PM 36.4447 -95.5156 82° East 477 549 35,000  Level Kansas City Center
06:28PM 36.4592 -95.3547 84° East 474 545 35,000  Level Kansas City Center
06:29PM 36.4728 -95.1911 84° East 474 545 35,000  Level Kansas City Center
06:30PM 36.4894 -95.0189 83° East 471 542 35,000  Level Kansas City Center
06:31PM 36.5058 -94.8586 83° East 468 539 35,000  Level Kansas City Center
06:32PM 36.5236 -94.6992 82° East 466 536 35,000  Level Kansas City Center
06:33PM 36.5425 -94.5397 82° East 465 535 35,000  Level Kansas City Center
06:34PM 36.5675 -94.3497 81° East 464 534 35,000  Level Kansas City Center
06:35PM 36.6125 -94.2011 69° East 459 528 35,000  Level Kansas City Center
06:36PM 36.6539 -94.0497 71° East 461 531 35,000  Level Kansas City Center
06:37PM 36.6800 -93.8944 78° East 460 529 35,000  Level Kansas City Center
06:38PM 36.7231 -93.7364 71° East 460 529 35,000  Level Kansas City Center
06:39PM 36.7572 -93.5825 74° East 461 531 35,000  Level Kansas City Center
06:40PM 36.7925 -93.4319 74° East 456 525 35,000  Level Kansas City Center
06:41PM 36.8236 -93.2831 75° East 449 517 35,000  Level Kansas City Center
06:42PM 36.8578 -93.1319 74° East 450 518 35,000  Level Kansas City Center
06:43PM 36.8942 -92.9653 75° East 449 517 35,000  Level Kansas City Center
06:44PM 36.9289 -92.8125 74° East 453 521 35,000  Level Kansas City Center
06:46PM 36.9694 -92.6286 75° East 458 527 35,000  Level Kansas City Center
06:47PM 37.0014 -92.4750 75° East 458 527 35,000  Level Kansas City Center
06:48PM 37.0369 -92.3211 74° East 461 531 35,000  Level Kansas City Center
06:49PM 37.0694 -92.1667 75° East 460 529 35,000  Level Kansas City Center
06:50PM 37.1044 -92.0136 74° East 458 527 35,000  Level Kansas City Center
06:51PM 37.1353 -91.8614 76° East 455 524 35,000  Level Kansas City Center
06:52PM 37.1742 -91.6778 75° East 455 524 35,000  Level Kansas City Center
06:53PM 37.2078 -91.5242 75° East 458 527 35,000  Level Kansas City Center
06:54PM 37.2394 -91.3689 76° East 459 528 35,000  Level Kansas City Center
06:55PM 37.2728 -91.2153 75° East 459 528 35,000  Level Kansas City Center
06:56PM 37.3036 -91.0611 76° East 456 525 35,000  Level Kansas City Center
06:57PM 37.3331 -90.9064 76° East 457 526 35,000  Level Kansas City Center
06:58PM 37.3681 -90.7286 76° East 459 528 35,000 -240 Level Kansas City Center
06:59PM 37.4000 -90.5758 75° East 456 525 34,600 -540 Descending Kansas City Center
07:00PM 37.4308 -90.4197 76° East 459 528 34,000 -300 Descending Kansas City Center
07:01PM 37.4669 -90.2658 73° East 461 531 34,000  Level Kansas City Center
07:02PM 37.4997 -90.0772 78° East 462 532 34,000  Level Kansas City Center
07:03PM 37.5308 -89.9267 75° East 462 532 34,000  Level Kansas City Center
07:04PM 37.5614 -89.7683 76° East 463 533 34,000  Level Kansas City Center
07:05PM 37.5922 -89.6094 76° East 461 531 34,000  Level Kansas City Center
07:06PM 37.6228 -89.4533 76° East 459 528 34,000  Level Kansas City Center
07:07PM 37.6578 -89.2706 76° East 455 524 34,000  Level Kansas City Center
07:08PM 37.6878 -89.1181 76° East 452 520 34,000 -60 Level Kansas City Center
07:09PM 37.7156 -88.9644 77° East 449 517 33,900 -1,020 Descending Kansas City Center
07:10PM 37.7433 -88.8089 77° East 450 518 31,900 -2,220 Descending Kansas City Center
07:11PM 37.7742 -88.6439 77° East 457 526 29,400 -1,440 Descending Kansas City Center
07:12PM 37.8044 -88.4900 76° East 454 522 29,000 -240 Descending Kansas City Center
07:13PM 37.8289 -88.3372 79° East 445 512 29,000  Level Kansas City Center
07:14PM 37.8408 -88.2450 81° East 443 510 29,000 -900 Level Indianapolis Center
07:15PM 37.8764 -88.0639 76° East 442 509 27,500 -1,560 Descending Indianapolis Center
07:16PM 37.8886 -88.0056 75° East 439 505 26,800 -1,800 Descending Kansas City Center
07:17PM 37.9150 -87.8628 77° East 423 487 25,000 -1,500 Descending Kansas City Center
07:17PM 37.9311 -87.7789 76° East 412 474 24,300 -600 Descending Indianapolis Center
07:18PM 37.9703 -87.6450 70° East 408 470 24,000 -420 Descending Indianapolis Center
07:20PM 38.0249 -87.4552 70° East  Level FlightAware Approximate
07:20PM 38.0497 -87.3806 70° East 401 461 23,100  Level Indianapolis Center
07:21PM 38.1039 -87.2281 66° East 396 456 20,800 -2,160 Descending Indianapolis Center
07:22PM 38.1400 -87.1058 69° East 378 435 18,700 -1,980 Descending Indianapolis Center
07:23PM 38.1750 -86.9892 69° East 362 417 16,800 -1,920 Descending Indianapolis Center
07:24PM 38.2092 -86.8761 69° East 348 400 14,800 -1,980 Descending Indianapolis Center
07:25PM 38.2436 -86.7686 68° East 333 383 12,800 -1,680 Descending Indianapolis Center
07:26PM 38.2469 -86.6306 88° East 332 382 11,400 -1,320 Descending Indianapolis Center
07:28PM 38.2361 -86.5242 97° East 311 358 10,100 -1,560 Descending Indianapolis Center
07:29PM 38.2242 -86.4256 99° East 286 329 8,300 -1,680 Descending Indianapolis Center
07:30PM 38.2069 -86.3272 103° East 284 327 6,700 -1,080 Descending Indianapolis Center
07:31PM 38.1917 -86.2308 101° East 280 322 6,100 -360 Descending Indianapolis Center
07:32PM 38.1803 -86.1342 98° East 277 319 6,000 -60 Descending Indianapolis Center
07:33PM 38.1664 -86.0383 100° East 275 316 6,000  Level Indianapolis Center
07:34PM 38.1533 -85.9422 100° East 276 318 6,000 -480 Level Indianapolis Center
07:35PM 38.1158 -85.8431 116° Southeast 278 320 5,100 -1,140 Descending Indianapolis Center
07:36PM 38.0569 -85.7956 148° Southeast 265 305 3,700 -1,260 Descending Indianapolis Center
07:37PM 38.0839 -85.7281 63° Northeast 239 275 2,600 -1,080 Descending Indianapolis Center
07:39PM 38.1345 -85.6524 302° West  Level FlightAware Approximate
07:46PM 38.1667 -85.7333 293° West  Level FlightAware Approximate
07:47PM 38.1741 -85.7365 293° West  Level Estimated